Time;durP1;ratioP1;P1;durP2;ratioP2;P2;SDS_P1;SDS_P2;PMS_P1;PMS_P2;Temp;Humidity;BMP_temperature;BMP_pressure;BME280_temperature;BME280_humidity;BME280_pressure;Samples;Min_cycle;Max_cycle;Signal;HPM_P1;HPM_P2
2022/09/23 00:00:47;;;;;;;2.28;1.90;;;8.80;59.20;;;;;;5096756;28;20035;-60
2022/09/23 00:03:15;;;;;;;1.90;1.70;;;8.80;59.30;;;;;;5105696;28;20043;-59
2022/09/23 00:05:41;;;;;;;2.95;1.88;;;8.80;59.40;;;;;;5089841;28;20064;-60
2022/09/23 00:08:09;;;;;;;3.03;1.98;;;8.70;59.40;;;;;;5072777;28;20029;-60
2022/09/23 00:10:37;;;;;;;6.28;2.20;;;8.70;59.50;;;;;;5092941;28;20044;-59
2022/09/23 00:13:04;;;;;;;2.80;2.00;;;8.60;59.60;;;;;;5094579;28;20028;-58
2022/09/23 00:15:30;;;;;;;2.38;1.70;;;8.60;59.60;;;;;;5080127;28;20036;-58
2022/09/23 00:17:56;;;;;;;3.85;1.73;;;8.60;59.50;;;;;;5094892;28;20028;-59
2022/09/23 00:20:22;;;;;;;1.73;1.63;;;8.50;59.60;;;;;;5102595;28;20026;-59
2022/09/23 00:22:48;;;;;;;2.78;1.70;;;8.50;59.60;;;;;;5088823;28;20084;-59
2022/09/23 00:25:14;;;;;;;9.40;2.42;;;8.50;59.50;;;;;;5101158;28;20036;-60
2022/09/23 00:27:41;;;;;;;2.40;1.80;;;8.40;59.60;;;;;;5096698;28;20095;-60
2022/09/23 00:30:08;;;;;;;3.50;1.88;;;8.40;59.70;;;;;;5079552;28;20028;-59
2022/09/23 00:32:36;;;;;;;2.97;1.90;;;8.40;59.70;;;;;;5096222;28;20025;-60
2022/09/23 00:35:02;;;;;;;2.92;1.98;;;8.40;59.80;;;;;;5082717;28;20112;-59
2022/09/23 00:37:28;;;;;;;5.38;2.10;;;8.30;59.80;;;;;;5100518;28;20031;-60
2022/09/23 00:39:54;;;;;;;1.90;1.80;;;8.30;59.70;;;;;;5082260;28;20031;-60
2022/09/23 00:42:22;;;;;;;2.20;1.83;;;8.30;59.80;;;;;;5092063;28;20025;-59
2022/09/23 00:44:57;;;;;;;2.30;1.83;;;8.30;59.80;;;;;;5078771;28;20079;-59
2022/09/23 00:47:34;;;;;;;1.95;1.75;;;8.20;60.10;;;;;;5100186;28;20034;-60
2022/09/23 00:50:07;;;;;;;2.15;1.70;;;8.20;60.30;;;;;;5085469;28;20105;-59
2022/09/23 00:52:32;;;;;;;3.08;1.90;;;8.20;60.00;;;;;;5069973;28;20029;-60
2022/09/23 00:55:01;;;;;;;2.03;1.83;;;8.20;60.00;;;;;;5084164;28;20059;-59
2022/09/23 00:57:29;;;;;;;1.95;1.65;;;8.20;60.20;;;;;;5097927;28;20036;-59
2022/09/23 00:59:55;;;;;;;2.10;1.90;;;8.10;59.90;;;;;;5089140;28;20032;-59
2022/09/23 01:02:20;;;;;;;4.35;1.92;;;8.10;59.90;;;;;;5068881;28;20025;-59
2022/09/23 01:04:49;;;;;;;6.13;2.03;;;8.10;59.90;;;;;;5086258;28;20051;-59
2022/09/23 01:07:16;;;;;;;2.08;1.75;;;8.00;60.00;;;;;;5099250;28;20033;-58
2022/09/23 01:09:44;;;;;;;3.72;2.40;;;8.00;59.90;;;;;;5085339;28;20054;-59
2022/09/23 01:12:40;;;;;;;14.43;2.22;;;8.00;59.90;;;;;;5089976;28;20040;-59
2022/09/23 01:15:20;;;;;;;2.00;1.80;;;8.00;60.60;;;;;;5084947;28;20036;-61
2022/09/23 01:17:58;;;;;;;6.32;1.67;;;7.90;60.40;;;;;;5081005;28;20044;-61
2022/09/23 01:20:27;;;;;;;1.90;1.80;;;7.90;60.70;;;;;;5086996;28;20052;-59
2022/09/23 01:23:07;;;;;;;7.68;2.10;;;7.90;60.30;;;;;;5088174;28;20029;-59
2022/09/23 01:25:46;;;;;;;2.67;1.70;;;7.90;61.20;;;;;;5095549;28;20445;-60
2022/09/23 01:28:14;;;;;;;1.95;1.75;;;7.90;60.90;;;;;;5101869;28;20020;-60
2022/09/23 01:31:12;;;;;;;2.10;1.90;;;7.80;60.60;;;;;;5087910;28;20052;-59
2022/09/23 01:33:44;;;;;;;3.00;1.95;;;7.80;61.50;;;;;;5077013;28;20046;-59
2022/09/23 01:36:25;;;;;;;2.17;1.67;;;7.80;60.60;;;;;;5074373;28;20043;-61
2022/09/23 01:39:00;;;;;;;2.65;1.98;;;7.80;60.90;;;;;;5078981;28;20028;-60
2022/09/23 01:42:08;;;;;;;2.15;1.92;;;7.80;61.00;;;;;;5096693;28;20027;-60
2022/09/23 01:44:47;;;;;;;1.75;1.63;;;7.70;61.40;;;;;;5078185;28;20024;-58
2022/09/23 01:47:33;;;;;;;2.22;1.65;;;7.70;60.90;;;;;;5081552;28;20048;-59
2022/09/23 01:50:55;;;;;;;2.22;1.80;;;7.70;61.20;;;;;;5082066;28;20049;-59
2022/09/23 01:52:55;;;;;;;;;;;7.70;60.70;;;;;;5070739;28;20029;-60
2022/09/23 01:55:29;;;;;;;2.88;1.95;;;7.70;61.00;;;;;;5092816;28;20538;-58
2022/09/23 01:58:01;;;;;;;2.35;1.80;;;7.60;60.00;;;;;;5083569;28;20020;-61
2022/09/23 02:00:30;;;;;;;3.15;1.90;;;7.60;60.60;;;;;;5087307;28;20543;-59
2022/09/23 02:03:06;;;;;;;4.45;1.90;;;7.60;60.60;;;;;;5090406;28;20028;-61
2022/09/23 02:05:37;;;;;;;4.03;2.03;;;7.60;60.90;;;;;;5073408;28;20040;-60
2022/09/23 02:08:13;;;;;;;3.78;2.08;;;7.50;60.70;;;;;;5079921;28;20092;-58
2022/09/23 02:10:42;;;;;;;2.30;2.10;;;7.50;61.10;;;;;;5075804;28;20033;-59
2022/09/23 02:13:23;;;;;;;2.85;2.00;;;7.50;60.80;;;;;;5090349;28;20054;-59
2022/09/23 02:15:56;;;;;;;6.20;2.08;;;7.50;61.00;;;;;;5085740;28;20020;-59
2022/09/23 02:18:33;;;;;;;3.80;2.00;;;7.50;60.90;;;;;;5080818;28;20039;-59
2022/09/23 02:21:03;;;;;;;1.83;1.73;;;7.40;60.80;;;;;;5082591;28;20112;-59
2022/09/23 02:23:58;;;;;;;2.83;1.98;;;7.40;60.70;;;;;;5074755;28;20767;-59
2022/09/23 02:26:44;;;;;;;2.00;1.80;;;7.30;61.50;;;;;;5084787;28;20051;-58
2022/09/23 02:29:21;;;;;;;2.50;1.90;;;7.30;60.90;;;;;;5075476;28;20037;-59
2022/09/23 02:32:07;;;;;;;2.65;2.00;;;7.30;61.20;;;;;;5079676;28;20028;-59
2022/09/23 02:34:32;;;;;;;3.13;2.03;;;7.30;61.30;;;;;;5070249;28;20102;-60
2022/09/23 02:37:22;;;;;;;4.35;2.28;;;7.30;61.20;;;;;;5099596;28;20020;-60
2022/09/23 02:39:56;;;;;;;5.32;2.00;;;7.20;62.00;;;;;;5080664;28;20119;-58
2022/09/23 02:42:30;;;;;;;1.63;1.53;;;7.20;61.70;;;;;;5071959;28;20039;-59
2022/09/23 02:44:57;;;;;;;3.58;2.17;;;7.20;61.50;;;;;;5072419;28;20337;-59
2022/09/23 02:47:28;;;;;;;6.22;2.20;;;7.20;61.50;;;;;;5092200;28;20060;-60
2022/09/23 02:49:55;;;;;;;3.78;2.20;;;7.20;61.80;;;;;;5087547;28;20115;-59
2022/09/23 02:52:21;;;;;;;3.70;2.40;;;7.20;61.80;;;;;;5097998;28;20044;-58
2022/09/23 02:54:46;;;;;;;3.05;2.20;;;7.10;61.80;;;;;;5084797;28;20132;-58
2022/09/23 02:57:13;;;;;;;3.20;2.25;;;7.10;61.90;;;;;;5094732;28;20039;-59
2022/09/23 02:59:39;;;;;;;3.03;2.00;;;7.20;62.00;;;;;;5091284;28;20597;-59
2022/09/23 03:02:08;;;;;;;3.40;2.60;;;7.10;62.00;;;;;;5077496;28;20024;-59
2022/09/23 03:04:39;;;;;;;3.13;2.28;;;7.10;62.00;;;;;;5075240;28;20059;-59
2022/09/23 03:07:19;;;;;;;2.55;2.00;;;7.10;62.30;;;;;;5098225;28;20036;-60
2022/09/23 03:10:03;;;;;;;2.30;2.00;;;7.10;62.70;;;;;;5078492;28;20028;-58
2022/09/23 03:12:51;;;;;;;2.85;1.58;;;7.10;62.40;;;;;;5078562;28;20048;-59
2022/09/23 03:15:32;;;;;;;3.00;1.80;;;7.10;63.00;;;;;;5080928;28;20025;-60
2022/09/23 03:18:03;;;;;;;5.68;2.30;;;7.10;62.80;;;;;;5079816;28;20092;-59
2022/09/23 03:20:48;;;;;;;2.28;1.92;;;7.10;62.00;;;;;;5085448;28;20161;-59
2022/09/23 03:23:17;;;;;;;5.25;2.20;;;7.00;62.60;;;;;;5081572;28;20039;-59
2022/09/23 03:25:47;;;;;;;4.95;2.15;;;7.00;62.00;;;;;;5105336;28;20071;-58
2022/09/23 03:28:16;;;;;;;3.25;2.22;;;7.00;62.20;;;;;;5070493;28;20097;-59
2022/09/23 03:30:43;;;;;;;2.10;1.83;;;7.00;62.20;;;;;;5105258;28;20085;-58
2022/09/23 03:33:12;;;;;;;3.78;2.00;;;7.00;62.10;;;;;;5083097;28;20039;-58
2022/09/23 03:38:36;;;;;;;3.90;2.20;;;6.90;62.00;;;;;;5084776;28;20035;-59
2022/09/23 03:41:04;;;;;;;3.70;2.28;;;6.90;61.70;;;;;;5104676;28;20432;-58
2022/09/23 03:43:30;;;;;;;2.45;2.15;;;6.90;61.80;;;;;;5091659;28;20047;-59
2022/09/23 03:45:58;;;;;;;3.25;2.20;;;6.90;61.90;;;;;;5084574;28;20046;-58
2022/09/23 03:48:24;;;;;;;2.63;2.42;;;6.90;61.80;;;;;;5102711;28;20028;-61
2022/09/23 03:50:50;;;;;;;3.60;2.50;;;6.80;61.80;;;;;;5082712;28;20403;-60
2022/09/23 03:53:17;;;;;;;3.13;2.35;;;6.80;61.60;;;;;;5094416;28;20029;-59
2022/09/23 03:55:45;;;;;;;2.60;2.25;;;6.80;61.60;;;;;;5084064;28;20020;-61
2022/09/23 03:58:11;;;;;;;4.75;2.15;;;6.80;61.60;;;;;;5096234;28;20033;-60
2022/09/23 04:00:36;;;;;;;2.67;2.28;;;6.70;61.60;;;;;;5068966;28;20052;-60
2022/09/23 04:03:02;;;;;;;6.63;2.50;;;6.70;61.80;;;;;;5100111;28;20096;-60
2022/09/23 04:05:28;;;;;;;3.35;2.58;;;6.70;61.90;;;;;;5073478;28;20518;-60
2022/09/23 04:07:53;;;;;;;8.15;2.42;;;6.60;61.90;;;;;;5103923;28;20084;-61
2022/09/23 04:10:19;;;;;;;2.63;2.33;;;6.60;61.90;;;;;;5071569;28;20637;-60
2022/09/23 04:12:45;;;;;;;2.83;2.22;;;6.60;62.00;;;;;;5102665;28;20046;-58
2022/09/23 04:15:10;;;;;;;3.13;2.15;;;6.60;62.20;;;;;;5075324;28;20036;-58
2022/09/23 04:17:36;;;;;;;6.15;2.65;;;6.60;62.20;;;;;;5103790;28;20050;-58
2022/09/23 04:20:02;;;;;;;2.70;2.30;;;6.60;62.20;;;;;;5073590;28;20075;-59
2022/09/23 04:22:28;;;;;;;4.50;2.80;;;6.60;62.30;;;;;;5089886;28;20086;-58
2022/09/23 04:24:53;;;;;;;4.95;2.88;;;6.60;62.40;;;;;;5080197;28;20040;-59
2022/09/23 04:27:19;;;;;;;7.43;2.92;;;6.60;62.40;;;;;;5092528;28;20032;-61
2022/09/23 04:29:44;;;;;;;2.88;2.50;;;6.60;62.40;;;;;;5090702;28;20032;-58
2022/09/23 04:32:10;;;;;;;3.97;2.50;;;6.50;62.20;;;;;;5102399;28;20042;-59
2022/09/23 04:34:36;;;;;;;6.63;2.58;;;6.50;62.20;;;;;;5096112;28;20035;-59
2022/09/23 04:37:01;;;;;;;3.83;2.40;;;6.50;62.30;;;;;;5073302;28;20488;-60
2022/09/23 04:39:27;;;;;;;7.15;2.80;;;6.50;62.20;;;;;;5095402;28;20104;-60
2022/09/23 04:41:53;;;;;;;2.60;2.22;;;6.50;62.30;;;;;;5107030;28;20078;-59
2022/09/23 04:44:20;;;;;;;3.22;2.53;;;6.40;62.20;;;;;;5091461;28;20498;-60
2022/09/23 04:46:46;;;;;;;4.00;2.42;;;6.40;62.20;;;;;;5088553;28;20029;-59
2022/09/23 04:49:13;;;;;;;2.65;2.13;;;6.40;62.20;;;;;;5099511;28;20537;-58
2022/09/23 04:51:42;;;;;;;4.10;2.17;;;6.40;62.00;;;;;;5034719;28;20043;-59
2022/09/23 04:54:09;;;;;;;3.63;2.38;;;6.40;62.10;;;;;;5100239;28;20024;-59
2022/09/23 04:56:35;;;;;;;3.25;2.50;;;6.40;62.10;;;;;;5108804;28;20076;-59
2022/09/23 04:59:01;;;;;;;5.70;2.47;;;6.40;62.30;;;;;;5092678;28;20102;-59
2022/09/23 05:01:29;;;;;;;4.13;2.30;;;6.40;62.40;;;;;;5091058;28;20155;-61
2022/09/23 05:04:00;;;;;;;4.13;2.58;;;6.40;62.40;;;;;;5094764;28;20024;-60
2022/09/23 05:06:26;;;;;;;4.05;2.78;;;6.30;62.40;;;;;;5072502;28;20040;-60
2022/09/23 05:08:53;;;;;;;4.95;2.67;;;6.30;62.30;;;;;;5087699;28;20047;-59
2022/09/23 05:11:20;;;;;;;4.07;2.53;;;6.30;62.30;;;;;;5102091;28;20111;-57
2022/09/23 05:13:51;;;;;;;3.53;2.67;;;6.30;62.30;;;;;;5104166;28;20032;-59
2022/09/23 05:16:18;;;;;;;7.30;2.38;;;6.30;62.60;;;;;;5077904;28;20407;-60
2022/09/23 05:18:45;;;;;;;6.82;2.90;;;6.30;62.40;;;;;;5100925;28;20024;-59
2022/09/23 05:21:16;;;;;;;4.13;2.45;;;6.30;62.40;;;;;;5109316;27;20033;-59
2022/09/23 05:23:45;;;;;;;5.70;2.17;;;6.30;62.80;;;;;;5093132;28;20025;-60
2022/09/23 05:26:12;;;;;;;5.93;2.60;;;6.20;62.50;;;;;;5087879;28;20063;-59
2022/09/23 05:28:40;;;;;;;3.63;2.60;;;6.20;62.70;;;;;;5086874;28;20033;-59
2022/09/23 05:31:06;;;;;;;6.35;3.25;;;6.20;62.80;;;;;;5086465;28;20035;-59
2022/09/23 05:33:34;;;;;;;7.03;3.63;;;6.20;62.80;;;;;;5107483;28;20051;-60
2022/09/23 05:36:00;;;;;;;6.20;3.97;;;6.30;62.80;;;;;;5071722;28;20032;-59
2022/09/23 05:38:30;;;;;;;8.85;4.10;;;6.30;62.80;;;;;;5105870;28;20056;-58
2022/09/23 05:40:57;;;;;;;7.53;4.35;;;6.30;63.00;;;;;;5086142;28;20025;-58
2022/09/23 05:43:23;;;;;;;6.35;4.13;;;6.30;62.90;;;;;;5093941;28;20043;-60
2022/09/23 05:45:49;;;;;;;7.35;3.10;;;6.30;63.10;;;;;;5087336;28;20426;-60
2022/09/23 05:48:15;;;;;;;9.00;3.38;;;6.40;63.40;;;;;;5102336;28;20110;-60
2022/09/23 05:50:49;;;;;;;5.93;2.53;;;6.40;63.50;;;;;;5077768;28;20044;-60
2022/09/23 05:53:15;;;;;;;5.18;3.03;;;6.50;64.10;;;;;;5077454;28;20025;-58
2022/09/23 05:55:40;;;;;;;7.03;2.65;;;6.50;63.70;;;;;;5090431;28;20043;-59
2022/09/23 05:58:06;;;;;;;6.20;3.10;;;6.60;63.70;;;;;;5106107;28;20036;-59
2022/09/23 06:00:31;;;;;;;3.92;3.05;;;6.70;63.70;;;;;;5085397;28;20059;-59
2022/09/23 06:02:57;;;;;;;4.82;3.17;;;6.80;63.80;;;;;;5106668;28;20555;-59
2022/09/23 06:05:23;;;;;;;5.68;3.47;;;6.80;63.90;;;;;;5085714;28;20717;-59
2022/09/23 06:07:50;;;;;;;4.80;3.72;;;6.90;63.90;;;;;;5102595;28;20032;-60
2022/09/23 06:10:15;;;;;;;7.72;4.28;;;7.00;63.80;;;;;;5092494;28;20024;-59
2022/09/23 06:12:43;;;;;;;7.65;4.05;;;7.10;63.80;;;;;;5098279;28;20031;-59
2022/09/23 06:15:10;;;;;;;9.18;3.60;;;7.20;63.80;;;;;;5094193;28;20036;-59
2022/09/23 06:17:36;;;;;;;7.57;3.78;;;7.20;63.60;;;;;;5103777;28;20028;-60
2022/09/23 06:20:02;;;;;;;7.65;3.90;;;7.30;63.60;;;;;;5084214;28;20035;-60
2022/09/23 06:22:28;;;;;;;7.32;2.83;;;7.40;63.80;;;;;;5073878;28;20025;-60
2022/09/23 06:24:53;;;;;;;7.53;3.03;;;7.50;63.80;;;;;;5094874;28;20033;-59
2022/09/23 06:27:19;;;;;;;11.52;3.20;;;7.60;63.90;;;;;;5085761;28;20096;-59
2022/09/23 06:29:45;;;;;;;12.60;3.45;;;7.70;63.90;;;;;;5079452;28;20024;-59
2022/09/23 06:32:10;;;;;;;8.85;2.97;;;7.80;64.00;;;;;;5105229;28;20051;-59
2022/09/23 06:34:36;;;;;;;8.30;2.80;;;8.00;64.00;;;;;;5080886;28;20044;-58
2022/09/23 06:37:02;;;;;;;15.77;3.30;;;8.10;63.90;;;;;;5105972;28;20032;-60
2022/09/23 06:39:28;;;;;;;12.27;3.25;;;8.20;63.90;;;;;;5100166;28;20025;-60
2022/09/23 06:41:54;;;;;;;6.80;3.15;;;8.40;63.90;;;;;;5079111;28;20077;-59
2022/09/23 06:44:20;;;;;;;12.68;3.72;;;8.50;63.90;;;;;;5103500;28;20027;-59
2022/09/23 06:46:45;;;;;;;8.30;3.38;;;8.60;63.70;;;;;;5076998;28;20045;-60
2022/09/23 06:49:12;;;;;;;6.03;3.38;;;8.70;63.50;;;;;;5091042;28;20056;-59
2022/09/23 06:51:38;;;;;;;5.95;3.75;;;8.90;63.40;;;;;;5084680;28;20035;-59
2022/09/23 06:54:03;;;;;;;4.82;3.00;;;9.00;63.30;;;;;;5094370;28;20032;-61
2022/09/23 06:56:29;;;;;;;8.98;3.72;;;9.10;63.00;;;;;;5105795;28;20032;-60
2022/09/23 06:58:55;;;;;;;7.75;2.83;;;9.20;62.90;;;;;;5075010;28;20103;-59
2022/09/23 07:01:22;;;;;;;9.20;3.85;;;9.40;62.90;;;;;;5104695;28;20517;-60
2022/09/23 07:03:47;;;;;;;6.07;3.35;;;9.50;62.90;;;;;;5085204;28;20028;-60
2022/09/23 07:06:13;;;;;;;11.93;3.28;;;9.60;62.80;;;;;;5081370;28;20037;-61
2022/09/23 07:08:43;;;;;;;6.03;3.25;;;9.70;62.70;;;;;;5099928;28;20024;-60
2022/09/23 07:11:11;;;;;;;13.30;4.85;;;9.90;62.70;;;;;;5086604;28;20417;-62
2022/09/23 07:13:38;;;;;;;10.05;4.72;;;10.00;62.50;;;;;;5085117;28;20032;-59
2022/09/23 07:16:04;;;;;;;14.57;6.13;;;10.10;62.30;;;;;;5086653;28;20025;-60
2022/09/23 07:18:32;;;;;;;9.77;5.30;;;10.20;62.20;;;;;;5076075;28;20086;-60
2022/09/23 07:21:08;;;;;;;8.88;5.05;;;10.30;62.30;;;;;;5087321;28;20028;-60
2022/09/23 07:23:34;;;;;;;8.65;5.78;;;10.40;62.30;;;;;;5079846;28;20085;-60
2022/09/23 07:26:00;;;;;;;8.32;5.80;;;10.60;62.20;;;;;;5086829;28;20052;-60
2022/09/23 07:28:27;;;;;;;13.18;5.68;;;10.70;62.20;;;;;;5095215;28;20036;-61
2022/09/23 07:30:54;;;;;;;11.68;5.97;;;10.80;62.00;;;;;;5088885;28;20032;-59
2022/09/23 07:33:20;;;;;;;16.08;6.57;;;10.90;61.80;;;;;;5097852;28;20020;-59
2022/09/23 07:35:45;;;;;;;11.50;7.47;;;11.00;61.80;;;;;;5087835;28;20025;-61
2022/09/23 07:38:11;;;;;;;8.77;6.07;;;11.10;61.70;;;;;;5087719;28;20063;-59
2022/09/23 07:40:41;;;;;;;9.02;5.70;;;11.20;61.70;;;;;;5090117;28;20047;-58
2022/09/23 07:43:08;;;;;;;7.15;5.38;;;11.30;61.80;;;;;;5077616;28;20356;-59
2022/09/23 07:45:36;;;;;;;7.50;5.43;;;11.50;62.10;;;;;;5077346;28;20482;-59
2022/09/23 07:48:02;;;;;;;9.00;6.05;;;11.60;61.90;;;;;;5079251;28;20056;-59
2022/09/23 07:50:30;;;;;;;11.30;5.60;;;11.70;61.90;;;;;;5090733;28;20161;-59
2022/09/23 07:52:56;;;;;;;10.40;4.88;;;11.80;61.80;;;;;;5078214;28;20020;-60
2022/09/23 07:55:22;;;;;;;13.70;5.80;;;11.90;61.40;;;;;;5084607;28;20414;-59
2022/09/23 07:57:48;;;;;;;6.53;5.07;;;12.00;61.00;;;;;;5081197;28;20039;-59
2022/09/23 08:00:13;;;;;;;9.32;5.32;;;12.10;61.10;;;;;;5067759;28;20025;-60
2022/09/23 08:02:40;;;;;;;6.38;5.07;;;12.20;61.40;;;;;;5072739;28;20029;-59
2022/09/23 08:05:07;;;;;;;9.30;5.25;;;12.30;61.10;;;;;;5086396;28;20024;-60
2022/09/23 08:07:33;;;;;;;8.18;5.22;;;12.50;61.10;;;;;;5093248;28;20767;-58
2022/09/23 08:10:00;;;;;;;6.60;4.85;;;12.60;61.00;;;;;;5082247;28;20037;-60
2022/09/23 08:12:28;;;;;;;7.57;4.82;;;12.70;60.70;;;;;;5087622;28;20039;-59
2022/09/23 08:14:53;;;;;;;6.22;5.03;;;12.80;60.70;;;;;;5100369;28;20030;-59
2022/09/23 08:17:19;;;;;;;7.03;5.25;;;13.00;60.60;;;;;;5071071;28;20056;-60
2022/09/23 08:19:45;;;;;;;8.75;5.50;;;13.10;60.40;;;;;;5088055;28;20024;-59
2022/09/23 08:22:11;;;;;;;5.65;5.05;;;13.30;60.10;;;;;;5081589;28;20039;-59
2022/09/23 08:24:37;;;;;;;9.82;5.22;;;13.40;59.90;;;;;;5091975;28;20070;-60
2022/09/23 08:27:03;;;;;;;6.00;4.93;;;13.60;59.80;;;;;;5099648;28;20037;-59
2022/09/23 08:29:28;;;;;;;8.63;5.18;;;13.70;59.50;;;;;;5090204;28;20028;-59
2022/09/23 08:31:54;;;;;;;10.70;4.75;;;13.80;59.40;;;;;;5084986;28;20020;-59
2022/09/23 08:34:24;;;;;;;7.10;4.72;;;13.90;59.40;;;;;;5085180;28;20050;-59
2022/09/23 08:36:51;;;;;;;8.00;5.10;;;14.00;59.90;;;;;;5099275;28;20021;-59
2022/09/23 08:39:19;;;;;;;6.45;4.53;;;14.20;59.00;;;;;;5092817;28;20036;-58
2022/09/23 08:41:49;;;;;;;8.98;4.30;;;14.30;58.90;;;;;;5089613;28;20017;-60
2022/09/23 08:44:42;;;;;;;8.02;4.75;;;14.40;58.90;;;;;;5073879;28;20036;-59
2022/09/23 08:47:14;;;;;;;5.82;4.85;;;14.60;58.80;;;;;;5073250;28;20072;-60
2022/09/23 08:50:03;;;;;;;7.03;4.53;;;14.70;58.60;;;;;;5083940;28;20078;-60
2022/09/23 08:52:39;;;;;;;6.07;5.05;;;14.90;58.20;;;;;;5080575;28;20043;-61
2022/09/23 08:55:09;;;;;;;7.47;4.88;;;15.00;58.00;;;;;;5097157;28;20054;-58
2022/09/23 08:57:39;;;;;;;6.60;4.88;;;15.20;57.90;;;;;;5079942;28;20108;-60
2022/09/23 09:00:05;;;;;;;6.40;4.38;;;15.30;57.50;;;;;;5080548;28;20529;-59
2022/09/23 09:02:34;;;;;;;5.88;4.45;;;15.40;57.20;;;;;;5081545;28;20040;-61
2022/09/23 09:05:05;;;;;;;6.45;4.40;;;15.50;57.20;;;;;;5082927;28;20701;-60
2022/09/23 09:07:37;;;;;;;5.95;4.35;;;15.70;57.50;;;;;;5078717;28;20056;-60
2022/09/23 09:10:10;;;;;;;6.10;4.15;;;15.80;57.40;;;;;;5066057;28;20119;-59
2022/09/23 09:13:00;;;;;;;6.32;4.30;;;16.00;57.40;;;;;;5077676;28;20033;-59
2022/09/23 09:15:27;;;;;;;5.47;4.30;;;16.10;56.50;;;;;;5068196;28;20518;-59
2022/09/23 09:18:16;;;;;;;7.70;4.65;;;16.30;56.70;;;;;;5091646;28;20021;-62
2022/09/23 09:21:13;;;;;;;8.88;4.05;;;16.50;56.50;;;;;;5066735;28;20021;-59
2022/09/23 09:23:56;;;;;;;3.55;3.25;;;16.60;56.30;;;;;;5082408;28;20033;-59
2022/09/23 09:26:25;;;;;;;4.32;3.92;;;16.80;55.80;;;;;;5075038;28;20037;-60
2022/09/23 09:29:26;;;;;;;5.45;3.95;;;16.90;55.70;;;;;;5093618;28;20029;-60
2022/09/23 09:31:52;;;;;;;5.28;4.10;;;17.00;55.80;;;;;;5081656;28;20138;-59
2022/09/23 09:34:40;;;;;;;6.03;4.22;;;17.10;55.50;;;;;;5088403;28;20033;-61
2022/09/23 09:37:34;;;;;;;5.68;3.92;;;17.20;55.00;;;;;;5067868;28;20029;-60
2022/09/23 09:40:00;;;;;;;8.38;3.83;;;17.30;54.80;;;;;;5083740;28;20029;-60
2022/09/23 09:42:40;;;;;;;6.32;3.70;;;17.40;54.80;;;;;;5072329;28;20032;-61
2022/09/23 09:45:18;;;;;;;5.00;3.88;;;17.40;54.30;;;;;;5075437;28;20032;-59
2022/09/23 09:47:46;;;;;;;7.18;4.20;;;17.40;54.40;;;;;;5095436;28;20035;-60
2022/09/23 09:50:20;;;;;;;4.97;4.00;;;17.50;54.70;;;;;;5083116;28;20064;-60
2022/09/23 09:52:47;;;;;;;6.50;4.07;;;17.50;55.00;;;;;;5070224;28;20032;-60
2022/09/23 09:55:13;;;;;;;7.97;4.10;;;17.60;55.00;;;;;;5090282;28;20040;-59
2022/09/23 09:57:52;;;;;;;4.10;3.70;;;17.70;54.80;;;;;;5082819;28;20024;-59
2022/09/23 10:00:21;;;;;;;3.92;3.58;;;17.80;54.30;;;;;;5071789;28;20032;-59
2022/09/23 10:02:51;;;;;;;4.78;4.05;;;18.00;54.60;;;;;;5074901;28;20028;-59
2022/09/23 10:05:46;;;;;;;4.50;3.65;;;18.10;54.60;;;;;;5073960;28;20163;-60
2022/09/23 10:08:21;;;;;;;4.78;4.13;;;18.20;54.10;;;;;;5066562;28;20467;-59
2022/09/23 10:11:03;;;;;;;9.48;4.43;;;18.20;54.00;;;;;;5070099;28;20021;-61
2022/09/23 10:13:30;;;;;;;4.70;3.45;;;18.30;53.60;;;;;;5072512;28;20071;-61
2022/09/23 10:15:58;;;;;;;6.95;3.80;;;18.40;53.60;;;;;;5096242;28;20046;-59
2022/09/23 10:18:37;;;;;;;5.78;3.75;;;18.40;53.70;;;;;;5084024;28;20028;-59
2022/09/23 10:21:14;;;;;;;5.75;3.80;;;18.40;53.70;;;;;;5078590;28;20067;-61
2022/09/23 10:23:53;;;;;;;7.57;4.28;;;18.50;53.90;;;;;;5081182;28;20422;-60
2022/09/23 10:26:39;;;;;;;4.93;3.90;;;18.50;54.00;;;;;;5072899;28;20120;-60
2022/09/23 10:29:28;;;;;;;9.93;4.57;;;18.60;53.50;;;;;;5066558;28;20071;-60
2022/09/23 10:32:19;;;;;;;5.78;3.45;;;18.70;53.30;;;;;;5085977;28;20028;-60
2022/09/23 10:34:50;;;;;;;4.65;3.55;;;18.70;53.10;;;;;;5078944;28;20029;-59
2022/09/23 10:37:44;;;;;;;6.65;3.70;;;18.80;53.50;;;;;;5084106;28;20029;-61
2022/09/23 10:49:08;;;;;;;7.22;4.35;;;19.10;53.10;;;;;;5084670;28;20066;-60
2022/09/23 10:51:37;;;;;;;6.63;3.85;;;19.20;53.10;;;;;;5072463;28;20074;-60
2022/09/23 10:54:03;;;;;;;6.60;3.45;;;19.30;53.10;;;;;;5069095;28;20096;-60
2022/09/23 10:56:38;;;;;;;5.32;3.80;;;19.40;53.20;;;;;;5079316;28;20044;-61
2022/09/23 10:59:04;;;;;;;4.47;3.22;;;19.50;52.80;;;;;;5077128;28;20037;-61
2022/09/23 11:02:01;;;;;;;4.93;3.58;;;19.50;52.50;;;;;;5081712;28;20040;-61
2022/09/23 11:04:50;;;;;;;8.18;3.42;;;19.60;52.40;;;;;;5073060;28;20057;-60
2022/09/23 11:07:51;;;;;;;6.22;4.07;;;19.70;52.80;;;;;;5065888;28;20044;-60
2022/09/23 11:10:56;;;;;;;6.75;4.35;;;19.80;52.10;;;;;;5076172;28;20028;-60
2022/09/23 11:13:55;;;;;;;4.20;3.53;;;19.80;51.10;;;;;;5071788;28;20025;-60
2022/09/23 11:16:24;;;;;;;120.68;31.17;;;19.90;51.90;;;;;;5072255;28;20036;-59
2022/09/23 11:18:56;;;;;;;27.08;8.15;;;19.90;52.70;;;;;;5097746;28;20021;-60
2022/09/23 11:21:51;;;;;;;28.35;10.00;;;20.00;52.80;;;;;;5069862;28;20025;-61
2022/09/23 11:24:19;;;;;;;8.68;5.72;;;20.00;52.40;;;;;;5081788;28;20056;-59
2022/09/23 11:27:26;;;;;;;10.70;4.78;;;20.20;52.00;;;;;;5087395;28;20111;-61
2022/09/23 11:30:02;;;;;;;5.82;3.80;;;20.20;51.20;;;;;;5068677;28;20064;-58
2022/09/23 11:32:50;;;;;;;7.55;4.07;;;20.30;51.70;;;;;;5076972;28;20044;-59
2022/09/23 11:35:21;;;;;;;6.03;4.38;;;20.40;51.40;;;;;;5075547;28;20074;-60
2022/09/23 11:38:14;;;;;;;6.00;4.40;;;20.50;51.00;;;;;;5074849;28;20059;-60
2022/09/23 11:40:44;;;;;;;6.57;3.88;;;20.50;50.60;;;;;;5083676;28;20185;-60
2022/09/23 11:43:24;;;;;;;11.05;4.88;;;20.60;50.90;;;;;;5084015;28;20021;-60
2022/09/23 11:46:09;;;;;;;6.10;4.38;;;20.60;50.70;;;;;;5097593;28;20028;-60
2022/09/23 11:48:45;;;;;;;7.47;4.78;;;20.70;51.10;;;;;;5067319;28;20039;-62
2022/09/23 11:51:30;;;;;;;7.85;4.65;;;20.70;50.60;;;;;;5004826;28;20066;-60
2022/09/23 11:54:11;;;;;;;9.95;5.03;;;20.80;50.70;;;;;;5065311;28;20085;-59
2022/09/23 11:56:42;;;;;;;6.75;5.07;;;20.90;50.10;;;;;;5078674;28;20044;-61
2022/09/23 11:59:38;;;;;;;6.65;5.20;;;20.90;50.50;;;;;;5068304;28;20050;-59
2022/09/23 12:02:17;;;;;;;12.73;5.13;;;21.00;50.40;;;;;;5082382;28;20104;-58
2022/09/23 12:04:56;;;;;;;6.38;4.88;;;21.00;50.50;;;;;;5084041;28;20021;-59
2022/09/23 12:07:33;;;;;;;7.57;5.00;;;21.10;50.90;;;;;;5080519;28;20064;-60
2022/09/23 12:10:07;;;;;;;10.73;4.93;;;21.20;50.80;;;;;;5077027;28;20430;-59
2022/09/23 12:12:55;;;;;;;7.40;5.20;;;21.40;50.60;;;;;;5095828;28;20132;-59
2022/09/23 12:15:40;;;;;;;7.88;5.18;;;21.50;49.90;;;;;;5070611;28;22137;-61
2022/09/23 12:18:26;;;;;;;8.13;4.53;;;21.60;50.40;;;;;;5089483;28;20021;-60
2022/09/23 12:21:16;;;;;;;11.18;5.53;;;21.70;49.90;;;;;;5082424;28;20039;-58
2022/09/23 12:23:55;;;;;;;6.88;5.28;;;21.80;49.70;;;;;;5064969;28;20059;-59
2022/09/23 12:26:24;;;;;;;9.40;5.53;;;21.90;49.00;;;;;;5083972;28;20036;-59
2022/09/23 12:28:53;;;;;;;7.80;5.13;;;21.90;49.20;;;;;;5089998;28;20028;-59
2022/09/23 12:31:30;;;;;;;7.18;5.03;;;22.10;49.20;;;;;;5083202;28;20029;-59
2022/09/23 12:34:00;;;;;;;8.00;5.13;;;22.10;48.60;;;;;;5087298;28;20038;-58
2022/09/23 12:36:34;;;;;;;11.85;5.03;;;22.30;49.20;;;;;;5074787;28;20161;-61
2022/09/23 12:39:20;;;;;;;7.90;5.03;;;22.40;48.40;;;;;;5066851;28;20032;-59
2022/09/23 12:41:49;;;;;;;9.35;4.68;;;22.40;48.20;;;;;;5072982;28;20025;-60
2022/09/23 12:44:38;;;;;;;8.25;5.22;;;22.50;48.20;;;;;;5099067;28;20119;-59
2022/09/23 12:47:24;;;;;;;6.50;4.72;;;22.60;47.60;;;;;;5073431;28;20049;-59
2022/09/23 12:49:55;;;;;;;11.13;4.70;;;22.70;46.90;;;;;;5069672;28;20093;-62
2022/09/23 12:52:30;;;;;;;5.60;4.88;;;22.70;47.50;;;;;;5084731;28;20021;-61
2022/09/23 12:55:15;;;;;;;8.85;5.70;;;22.80;47.50;;;;;;5084309;28;20036;-59
2022/09/23 12:57:41;;;;;;;8.45;4.75;;;22.80;46.30;;;;;;5073242;28;20044;-61
2022/09/23 13:00:11;;;;;;;11.90;5.25;;;22.80;46.90;;;;;;5090803;28;20101;-60
2022/09/23 13:02:40;;;;;;;8.77;5.03;;;22.90;47.00;;;;;;5084924;28;20028;-60
2022/09/23 13:08:14;;;;;;;8.45;4.80;;;22.90;46.20;;;;;;5068502;28;20063;-60
2022/09/23 13:10:52;;;;;;;8.38;5.10;;;22.90;46.60;;;;;;5093053;28;20038;-60
2022/09/23 13:13:23;;;;;;;8.65;4.43;;;22.90;46.10;;;;;;5085474;28;20063;-60
2022/09/23 13:15:49;;;;;;;9.13;4.05;;;23.00;47.00;;;;;;5084910;28;20036;-60
2022/09/23 13:18:19;;;;;;;8.43;4.47;;;23.10;47.40;;;;;;5081539;28;20033;-60
2022/09/23 13:20:49;;;;;;;7.05;4.32;;;23.20;47.40;;;;;;5095860;28;20024;-59
2022/09/23 13:23:18;;;;;;;8.57;4.50;;;23.40;47.00;;;;;;5077292;28;20028;-61
2022/09/23 13:25:45;;;;;;;9.38;4.47;;;23.60;46.70;;;;;;5097099;28;20024;-60
2022/09/23 13:28:37;;;;;;;10.05;4.40;;;23.70;46.70;;;;;;5097271;28;20051;-60
2022/09/23 13:31:05;;;;;;;9.00;4.68;;;23.80;45.50;;;;;;5074419;28;20044;-60